Reed, Pennsylvania
Current Conditions -  °F | °C
As of 12:58 PM on Tuesday 27 Jan 2015 (Local Time) from KMUI Reporting Station
Few Clouds Few Clouds  
Wind Chill: 18°   Ceiling: Unl
Heat Index: 27°   Visibility: 10mi
Dew Point: 11°   Wind: 10mph
Humidity: 51%   Direction: 310°NW
Pressure: 29.79"   Gusts: 20mph
Location:  40.4949°N, 76.8115°W
Report Text: KMUI 271758Z AUTO 31009G17KT 10SM FEW080 M03/M11 A2979 RMK AO2 SLP097 T10271115 11026 21045 58003
Loading
Personal Weather Stations






























Interactive Weather Map New forecast layout! Learn more

10-Day Weather Forecast

Advertisements
Track Severe Weather on mobile